createdAt,value
2022-11-03T00:00:39.232Z,14.30
2022-11-03T00:03:06.501Z,14.25
2022-11-03T00:05:52.143Z,14.24
2022-11-03T00:08:19.136Z,14.24
2022-11-03T00:10:45.895Z,14.21
2022-11-03T00:13:12.658Z,14.19
2022-11-03T00:15:48.120Z,14.18
2022-11-03T00:18:14.905Z,14.10
2022-11-03T00:20:42.008Z,14.09
2022-11-03T00:23:08.889Z,14.10
2022-11-03T00:25:36.131Z,14.06
2022-11-03T00:30:35.000Z,13.96
2022-11-03T00:33:01.772Z,13.98
2022-11-03T00:35:28.872Z,13.91
2022-11-03T00:37:55.645Z,13.94
2022-11-03T00:40:22.697Z,13.88
2022-11-03T00:42:49.921Z,13.87
2022-11-03T00:45:16.768Z,13.89
2022-11-03T00:48:03.816Z,13.82
2022-11-03T00:50:30.562Z,13.80
2022-11-03T00:52:57.619Z,13.77
2022-11-03T00:55:24.421Z,13.77
2022-11-03T00:57:53.219Z,13.69
2022-11-03T01:00:20.063Z,13.69
2022-11-03T01:02:47.163Z,13.62
2022-11-03T01:05:32.798Z,13.62
2022-11-03T01:10:31.506Z,13.59
2022-11-03T01:12:58.559Z,13.59
2022-11-03T01:15:25.331Z,13.54
2022-11-03T01:17:52.395Z,13.49
2022-11-03T01:20:19.183Z,13.50
2022-11-03T01:22:46.270Z,13.46
2022-11-03T01:25:13.013Z,13.45
2022-11-03T01:27:40.099Z,13.44
2022-11-03T01:30:07.418Z,13.40
2022-11-03T01:32:34.485Z,13.36
2022-11-03T01:35:01.290Z,13.38
2022-11-03T01:37:28.376Z,13.31
2022-11-03T01:39:55.326Z,13.30
2022-11-03T01:42:22.378Z,13.29
2022-11-03T01:44:49.267Z,13.25
2022-11-03T01:47:21.100Z,13.21
2022-11-03T01:50:06.312Z,13.18
2022-11-03T01:52:36.663Z,13.19
2022-11-03T01:55:09.190Z,13.09
2022-11-03T01:57:41.626Z,13.06
2022-11-03T02:00:09.560Z,13.08
2022-11-03T02:02:36.322Z,13.06
2022-11-03T02:05:03.586Z,13.04
2022-11-03T02:07:39.638Z,12.94
2022-11-03T02:10:07.205Z,12.94
2022-11-03T02:12:33.990Z,12.92
2022-11-03T02:15:11.891Z,12.86
2022-11-03T02:17:38.669Z,12.82
2022-11-03T02:20:11.345Z,12.83
2022-11-03T02:23:02.446Z,12.81
2022-11-03T02:25:48.123Z,12.80
2022-11-03T02:28:20.088Z,12.78
2022-11-03T02:31:08.763Z,12.75
2022-11-03T02:33:47.518Z,12.71
2022-11-03T02:36:50.114Z,12.68
2022-11-03T02:39:22.715Z,12.67
2022-11-03T02:41:49.745Z,12.64
2022-11-03T02:44:17.882Z,12.63
2022-11-03T02:46:46.782Z,12.62
2022-11-03T02:49:13.588Z,12.62
2022-11-03T02:51:40.894Z,12.59
2022-11-03T02:54:19.302Z,12.57
2022-11-03T02:56:51.037Z,12.56
2022-11-03T02:59:20.220Z,12.53
2022-11-03T03:01:57.628Z,12.51
2022-11-03T03:04:30.446Z,12.48
2022-11-03T03:07:27.683Z,12.46
2022-11-03T03:09:59.354Z,12.45
2022-11-03T03:12:26.475Z,12.42
2022-11-03T03:14:53.205Z,12.40
2022-11-03T03:17:40.149Z,12.39
2022-11-03T03:20:31.738Z,12.35
2022-11-03T03:23:11.691Z,12.34
2022-11-03T03:25:50.871Z,12.31
2022-11-03T03:28:25.445Z,12.30
2022-11-03T03:30:53.178Z,12.26
2022-11-03T03:33:20.291Z,12.24
2022-11-03T03:35:48.619Z,12.21
2022-11-03T03:38:19.492Z,12.16
2022-11-03T03:40:47.040Z,12.19
2022-11-03T03:43:14.087Z,12.17
2022-11-03T03:45:40.896Z,12.14
2022-11-03T03:48:08.164Z,12.13
2022-11-03T03:50:36.763Z,12.12
2022-11-03T03:53:05.331Z,12.09
2022-11-03T03:55:36.824Z,12.06
2022-11-03T03:58:07.963Z,12.05
2022-11-03T04:00:34.995Z,12.03
2022-11-03T04:03:02.062Z,11.98
2022-11-03T04:05:28.872Z,11.97
2022-11-03T04:07:55.699Z,11.95
2022-11-03T04:10:23.298Z,11.93
2022-11-03T04:13:08.601Z,11.91
2022-11-03T04:15:54.457Z,11.86
2022-11-03T04:18:40.390Z,11.85
2022-11-03T04:21:29.071Z,11.84
2022-11-03T04:23:55.874Z,11.80
2022-11-03T04:26:23.099Z,11.78
2022-11-03T04:28:50.664Z,11.78
2022-11-03T04:31:18.362Z,11.75
2022-11-03T04:33:45.356Z,11.72
2022-11-03T04:36:22.416Z,11.69
2022-11-03T04:38:52.838Z,11.67
2022-11-03T04:41:29.382Z,11.66
2022-11-03T04:43:56.480Z,11.63
2022-11-03T04:46:28.791Z,11.61
2022-11-03T04:48:58.520Z,11.57
2022-11-03T04:51:28.539Z,11.57
2022-11-03T04:53:58.579Z,11.56
2022-11-03T04:56:25.643Z,11.52
2022-11-03T04:58:53.135Z,11.49
2022-11-03T05:01:24.946Z,11.48
2022-11-03T05:03:54.013Z,11.45
2022-11-03T05:06:28.166Z,11.42
2022-11-03T05:08:56.971Z,11.39
2022-11-03T05:11:31.210Z,11.38
2022-11-03T05:13:59.750Z,11.36
2022-11-03T05:16:26.479Z,11.33
2022-11-03T05:18:53.524Z,11.32
2022-11-03T05:21:22.255Z,11.29
2022-11-03T05:23:52.563Z,11.25
2022-11-03T05:26:28.364Z,11.26
2022-11-03T05:28:59.904Z,11.23
2022-11-03T05:31:29.093Z,11.20
2022-11-03T05:33:57.855Z,11.18
2022-11-03T05:36:26.240Z,11.17
2022-11-03T05:38:59.319Z,11.14
2022-11-03T05:41:29.629Z,11.10
2022-11-03T05:44:02.454Z,11.07
2022-11-03T05:46:30.818Z,11.06
2022-11-03T05:48:58.441Z,11.04
2022-11-03T05:51:27.746Z,11.01
2022-11-03T05:53:56.530Z,11.02
2022-11-03T05:56:24.383Z,10.99
2022-11-03T05:58:53.101Z,10.94
2022-11-03T06:01:21.314Z,10.94
2022-11-03T06:03:48.544Z,10.93
2022-11-03T06:06:29.386Z,10.92
2022-11-03T06:08:59.869Z,10.92
2022-11-03T06:11:36.712Z,10.88
2022-11-03T06:14:16.572Z,10.87
2022-11-03T06:16:47.474Z,10.86
2022-11-03T06:19:29.945Z,10.84
2022-11-03T06:22:06.034Z,10.85
2022-11-03T06:24:33.210Z,10.82
2022-11-03T06:27:00.039Z,10.85
2022-11-03T06:29:28.988Z,10.81
2022-11-03T06:31:56.754Z,10.82
2022-11-03T06:34:30.080Z,10.84
2022-11-03T06:36:57.885Z,10.76
2022-11-03T06:39:25.001Z,10.79
2022-11-03T06:41:51.823Z,10.76
2022-11-03T06:44:24.456Z,10.72
2022-11-03T06:47:00.154Z,10.73
2022-11-03T06:49:27.233Z,10.69
2022-11-03T06:51:54.661Z,10.69
2022-11-03T06:54:21.790Z,10.71
2022-11-03T06:56:48.511Z,10.72
2022-11-03T06:59:16.043Z,10.77
2022-11-03T07:01:42.903Z,10.79
2022-11-03T07:04:14.665Z,10.82
2022-11-03T07:06:42.112Z,10.85
2022-11-03T07:09:14.285Z,10.87
2022-11-03T07:11:55.600Z,10.91
2022-11-03T07:14:28.046Z,10.96
2022-11-03T07:16:57.036Z,11.00
2022-11-03T07:19:43.700Z,11.04
2022-11-03T07:22:24.151Z,11.08
2022-11-03T07:24:56.348Z,11.10
2022-11-03T07:27:36.201Z,11.15
2022-11-03T07:30:22.820Z,11.21
2022-11-03T07:32:52.289Z,11.23
2022-11-03T07:35:46.919Z,11.29
2022-11-03T07:38:19.496Z,11.33
2022-11-03T07:40:46.424Z,11.36
2022-11-03T07:43:19.432Z,11.39
2022-11-03T07:45:52.811Z,11.45
2022-11-03T07:48:45.764Z,11.51
2022-11-03T07:51:22.926Z,11.56
2022-11-03T07:53:54.897Z,11.59
2022-11-03T07:56:34.080Z,11.65
2022-11-03T07:59:11.401Z,11.69
2022-11-03T08:01:41.177Z,11.73
2022-11-03T08:04:10.693Z,11.78
2022-11-03T08:06:37.648Z,11.84
2022-11-03T08:09:04.855Z,11.87
2022-11-03T08:11:31.713Z,11.94
2022-11-03T08:13:58.816Z,11.98
2022-11-03T08:16:25.638Z,12.02
2022-11-03T08:18:52.819Z,12.10
2022-11-03T08:21:19.577Z,12.17
2022-11-03T08:23:47.790Z,12.20
2022-11-03T08:26:15.239Z,12.26
2022-11-03T08:28:41.871Z,12.31
2022-11-03T08:31:12.525Z,12.38
2022-11-03T08:33:40.279Z,12.42
2022-11-03T08:36:08.606Z,12.49
2022-11-03T08:38:35.615Z,12.53
2022-11-03T08:41:02.650Z,12.59
2022-11-03T08:43:29.615Z,12.66
2022-11-03T08:45:58.775Z,12.71
2022-11-03T08:48:30.048Z,12.78
2022-11-03T08:50:57.215Z,12.84
2022-11-03T08:53:24.778Z,12.91
2022-11-03T08:55:54.991Z,12.95
2022-11-03T08:58:22.357Z,13.00
2022-11-03T09:00:49.651Z,13.06
2022-11-03T09:03:16.607Z,13.13
2022-11-03T09:05:43.834Z,13.20
2022-11-03T09:10:57.742Z,13.34
2022-11-03T09:13:24.512Z,13.40
2022-11-03T09:15:51.248Z,13.47
2022-11-03T09:18:18.506Z,13.51
2022-11-03T09:20:45.255Z,13.58
2022-11-03T09:23:11.994Z,13.66
2022-11-03T09:25:39.048Z,13.71
2022-11-03T09:28:06.201Z,13.79
2022-11-03T09:30:33.662Z,13.84
2022-11-03T09:33:00.446Z,13.90
2022-11-03T09:35:27.917Z,13.98
2022-11-03T09:37:54.738Z,14.04
2022-11-03T09:40:22.008Z,14.13
2022-11-03T09:42:49.140Z,14.20
2022-11-03T09:45:16.399Z,14.27
2022-11-03T09:47:43.592Z,14.31
2022-11-03T09:50:16.802Z,14.37
2022-11-03T09:52:48.748Z,14.43
2022-11-03T09:55:22.025Z,14.54
2022-11-03T09:57:48.760Z,14.60
2022-11-03T10:00:18.485Z,14.62
2022-11-03T10:02:45.404Z,14.72
2022-11-03T10:05:19.365Z,14.79
2022-11-03T10:07:46.615Z,14.88
2022-11-03T10:10:15.974Z,14.94
2022-11-03T10:12:43.079Z,14.99
2022-11-03T10:15:14.693Z,15.06
2022-11-03T10:17:41.744Z,15.15
2022-11-03T10:20:16.022Z,15.19
2022-11-03T10:22:43.766Z,15.28
2022-11-03T10:25:45.627Z,15.34
2022-11-03T10:28:26.812Z,15.43
2022-11-03T10:31:11.113Z,15.49
2022-11-03T10:34:00.413Z,15.56
2022-11-03T10:36:28.841Z,15.64
2022-11-03T10:38:56.081Z,15.71
2022-11-03T10:41:22.909Z,15.78
2022-11-03T10:44:11.010Z,15.84
2022-11-03T10:46:50.579Z,15.90
2022-11-03T10:49:19.601Z,15.97
2022-11-03T10:51:48.180Z,16.01
2022-11-03T10:54:16.585Z,16.08
2022-11-03T10:56:44.074Z,16.10
2022-11-03T10:59:17.825Z,16.13
2022-11-03T11:01:45.254Z,16.24
2022-11-03T11:04:19.040Z,16.40
2022-11-03T11:06:46.483Z,16.41
2022-11-03T11:09:15.936Z,16.43
2022-11-03T11:12:02.472Z,16.48
2022-11-03T11:14:29.330Z,16.50
2022-11-03T11:16:59.510Z,16.54
2022-11-03T11:19:27.517Z,16.57
2022-11-03T11:21:54.612Z,16.62
2022-11-03T11:24:43.140Z,16.64
2022-11-03T11:27:39.696Z,16.66
2022-11-03T11:30:18.797Z,16.70
2022-11-03T11:32:45.902Z,16.75
2022-11-03T11:35:15.578Z,16.79
2022-11-03T11:37:42.947Z,16.81
2022-11-03T11:40:25.156Z,16.85
2022-11-03T11:43:07.258Z,16.91
2022-11-03T11:46:12.294Z,16.94
2022-11-03T11:48:39.118Z,16.93
2022-11-03T11:51:10.236Z,16.93
2022-11-03T11:53:41.039Z,16.99
2022-11-03T11:56:14.171Z,17.01
2022-11-03T11:58:45.857Z,17.06
2022-11-03T12:01:30.648Z,17.07
2022-11-03T12:03:58.785Z,17.08
2022-11-03T12:06:39.824Z,17.16
2022-11-03T12:09:12.694Z,17.17
2022-11-03T12:11:45.960Z,17.16
2022-11-03T12:14:46.085Z,17.23
2022-11-03T12:17:19.153Z,17.24
2022-11-03T12:19:47.150Z,17.20
2022-11-03T12:22:23.445Z,17.26
2022-11-03T12:24:50.371Z,17.20
2022-11-03T12:27:24.213Z,17.26
2022-11-03T12:29:51.921Z,17.33
2022-11-03T12:32:33.011Z,17.32
2022-11-03T12:35:00.209Z,17.37
2022-11-03T12:37:27.375Z,17.34
2022-11-03T12:39:54.159Z,17.36
2022-11-03T12:42:21.176Z,17.41
2022-11-03T12:44:48.353Z,17.43
2022-11-03T12:47:15.165Z,17.41
2022-11-03T12:49:41.899Z,17.43
2022-11-03T12:52:10.593Z,17.49
2022-11-03T12:54:37.459Z,17.47
2022-11-03T12:57:04.547Z,17.48
2022-11-03T12:59:31.313Z,17.42
2022-11-03T13:01:58.521Z,17.37
2022-11-03T13:04:25.363Z,17.43
2022-11-03T13:06:52.454Z,17.45
2022-11-03T13:09:19.198Z,17.51
2022-11-03T13:12:04.913Z,17.52
2022-11-03T13:14:31.679Z,17.56
2022-11-03T13:16:58.808Z,17.56
2022-11-03T13:19:25.586Z,17.59
2022-11-03T13:21:52.691Z,17.57
2022-11-03T13:24:19.413Z,17.57
2022-11-03T13:26:46.756Z,17.57
2022-11-03T13:29:13.585Z,17.61
2022-11-03T13:31:40.794Z,17.58
2022-11-03T13:34:07.534Z,17.61
2022-11-03T13:36:34.739Z,17.61
2022-11-03T13:39:01.556Z,17.60
2022-11-03T13:41:28.602Z,17.64
2022-11-03T13:43:55.348Z,17.57
2022-11-03T13:46:22.485Z,17.59
2022-11-03T13:51:36.305Z,17.59
2022-11-03T13:59:36.977Z,17.55
2022-11-03T14:04:52.566Z,17.57
2022-11-03T14:07:19.646Z,17.58
2022-11-03T14:09:46.594Z,17.52
2022-11-03T14:12:31.673Z,17.52
2022-11-03T14:15:07.374Z,17.53
2022-11-03T14:17:34.741Z,17.49
2022-11-03T14:20:04.461Z,17.53
2022-11-03T14:22:32.250Z,17.52
2022-11-03T14:24:59.248Z,17.50
2022-11-03T14:27:26.521Z,17.49
2022-11-03T14:29:53.364Z,17.48
2022-11-03T14:32:20.582Z,17.50
2022-11-03T14:34:47.907Z,17.43
2022-11-03T14:37:15.294Z,17.36
2022-11-03T14:39:42.215Z,17.34
2022-11-03T14:42:15.191Z,17.29
2022-11-03T14:44:43.008Z,17.29
2022-11-03T14:47:11.268Z,17.25
2022-11-03T14:49:38.085Z,17.33
2022-11-03T14:52:07.024Z,17.34
2022-11-03T14:54:34.453Z,17.30
2022-11-03T14:57:01.279Z,17.30
2022-11-03T14:59:28.396Z,17.30
2022-11-03T15:01:55.340Z,17.32
2022-11-03T15:04:22.710Z,17.35
2022-11-03T15:06:49.633Z,17.30
2022-11-03T15:09:16.500Z,17.20
2022-11-03T15:11:43.993Z,17.18
2022-11-03T15:14:11.894Z,17.14
2022-11-03T15:16:39.164Z,17.09
2022-11-03T15:19:06.689Z,17.03
2022-11-03T15:21:33.673Z,16.97
2022-11-03T15:26:47.968Z,16.85
2022-11-03T15:29:15.094Z,16.75
2022-11-03T15:31:47.165Z,16.72
2022-11-03T15:34:15.673Z,16.70
2022-11-03T15:36:42.495Z,16.67
2022-11-03T15:39:09.716Z,16.66
2022-11-03T15:41:36.507Z,16.61
2022-11-03T15:44:03.631Z,16.60
2022-11-03T15:46:30.375Z,16.55
2022-11-03T15:48:57.776Z,16.52
2022-11-03T15:51:24.963Z,16.45
2022-11-03T15:53:57.914Z,16.41
2022-11-03T15:56:26.196Z,16.44
2022-11-03T15:58:53.307Z,16.43
2022-11-03T16:01:20.523Z,16.35
2022-11-03T16:03:47.990Z,16.36
2022-11-03T16:06:14.745Z,16.34
2022-11-03T16:08:41.869Z,16.38
2022-11-03T16:11:09.167Z,16.36
2022-11-03T16:13:36.103Z,16.31
2022-11-03T16:16:03.386Z,16.21
2022-11-03T16:18:30.169Z,16.18
2022-11-03T16:20:57.277Z,16.14
2022-11-03T16:23:24.208Z,16.15
2022-11-03T16:25:51.300Z,16.11
2022-11-03T16:28:18.099Z,16.10
2022-11-03T16:30:48.540Z,16.08
2022-11-03T16:33:19.780Z,16.07
2022-11-03T16:35:46.826Z,16.05
2022-11-03T16:38:15.272Z,16.05
2022-11-03T16:40:42.900Z,15.98
2022-11-03T16:43:09.764Z,15.94
2022-11-03T16:45:38.224Z,15.91
2022-11-03T16:48:06.372Z,15.90
2022-11-03T16:50:33.859Z,15.89
2022-11-03T16:53:00.860Z,15.88
2022-11-03T16:55:27.953Z,15.95
2022-11-03T16:57:54.758Z,15.85
2022-11-03T17:00:21.870Z,15.79
2022-11-03T17:02:48.679Z,15.82
2022-11-03T17:05:16.718Z,15.79
2022-11-03T17:07:45.369Z,15.83
2022-11-03T17:10:15.881Z,15.81
2022-11-03T17:12:42.628Z,15.77
2022-11-03T17:15:10.120Z,15.68
2022-11-03T17:17:37.788Z,15.64
2022-11-03T17:20:05.909Z,15.66
2022-11-03T17:22:32.687Z,15.74
2022-11-03T17:24:59.817Z,15.69
2022-11-03T17:27:29.071Z,15.67
2022-11-03T17:29:58.856Z,15.66
2022-11-03T17:32:30.468Z,15.66
2022-11-03T17:34:57.890Z,15.66
2022-11-03T17:37:25.121Z,15.59
2022-11-03T17:39:52.216Z,15.59
2022-11-03T17:42:28.542Z,15.55
2022-11-03T17:44:56.394Z,15.54
2022-11-03T17:47:23.457Z,15.53
2022-11-03T17:49:50.690Z,15.51
2022-11-03T17:52:28.248Z,15.48
2022-11-03T17:54:56.869Z,15.48
2022-11-03T17:57:23.913Z,15.53
2022-11-03T17:59:52.525Z,15.46
2022-11-03T18:02:21.158Z,15.47
2022-11-03T18:04:48.468Z,15.47
2022-11-03T18:07:20.700Z,15.46
2022-11-03T18:09:47.894Z,15.44
2022-11-03T18:12:33.899Z,15.42
2022-11-03T18:15:03.306Z,15.43
2022-11-03T18:17:30.243Z,15.45
2022-11-03T18:19:57.332Z,15.40
2022-11-03T18:22:24.117Z,15.43
2022-11-03T18:24:51.806Z,15.44
2022-11-03T18:27:24.120Z,15.42
2022-11-03T18:29:52.329Z,15.38
2022-11-03T18:32:19.354Z,15.38
2022-11-03T18:34:46.418Z,15.38
2022-11-03T18:37:13.345Z,15.37
2022-11-03T18:39:40.420Z,15.37
2022-11-03T18:42:14.271Z,15.36
2022-11-03T18:44:44.525Z,15.32
2022-11-03T18:47:11.321Z,15.30
2022-11-03T18:49:38.456Z,15.34
2022-11-03T18:52:13.001Z,15.34
2022-11-03T18:54:41.245Z,15.30
2022-11-03T18:57:09.905Z,15.29
2022-11-03T18:59:38.489Z,15.27
2022-11-03T19:02:22.466Z,15.29
2022-11-03T19:04:49.784Z,15.24
2022-11-03T19:07:25.370Z,15.25
2022-11-03T19:09:52.488Z,15.20
2022-11-03T19:12:19.411Z,15.22
2022-11-03T19:14:46.601Z,15.20
2022-11-03T19:17:22.975Z,15.16
2022-11-03T19:19:51.228Z,15.16
2022-11-03T19:22:22.155Z,15.16
2022-11-03T19:24:49.356Z,15.15
2022-11-03T19:27:28.981Z,15.09
2022-11-03T19:29:56.345Z,15.09
2022-11-03T19:32:40.487Z,15.11
2022-11-03T19:35:14.459Z,15.07
2022-11-03T19:37:41.360Z,15.07
2022-11-03T19:40:11.414Z,15.07
2022-11-03T19:42:38.257Z,15.06
2022-11-03T19:45:12.803Z,15.03
2022-11-03T19:50:32.955Z,15.02
2022-11-03T19:53:04.219Z,15.01
2022-11-03T19:55:41.255Z,14.97
2022-11-03T19:58:18.998Z,15.01
2022-11-03T20:00:46.457Z,14.95
2022-11-03T20:03:13.443Z,14.97
2022-11-03T20:05:42.897Z,14.91
2022-11-03T20:08:15.533Z,14.89
2022-11-03T20:10:44.159Z,14.91
2022-11-03T20:13:12.390Z,14.89
2022-11-03T20:15:39.492Z,14.87
2022-11-03T20:18:06.626Z,14.91
2022-11-03T20:20:35.412Z,14.88
2022-11-03T20:23:02.191Z,14.86
2022-11-03T20:25:30.438Z,14.88
2022-11-03T20:27:57.624Z,14.85
2022-11-03T20:30:25.374Z,14.84
2022-11-03T20:32:52.618Z,14.82
2022-11-03T20:35:24.509Z,14.78
2022-11-03T20:37:53.242Z,14.79
2022-11-03T20:40:21.718Z,14.76
2022-11-03T20:42:55.907Z,14.77
2022-11-03T20:45:23.108Z,14.76
2022-11-03T20:47:50.979Z,14.77
2022-11-03T20:50:18.844Z,14.75
2022-11-03T20:52:48.751Z,14.79
2022-11-03T20:55:22.830Z,14.71
2022-11-03T20:57:50.405Z,14.70
2022-11-03T21:00:22.488Z,14.68
2022-11-03T21:02:49.624Z,14.71
2022-11-03T21:05:26.901Z,14.70
2022-11-03T21:07:54.994Z,14.71
2022-11-03T21:10:22.876Z,14.69
2022-11-03T21:12:49.959Z,14.70
2022-11-03T21:15:37.878Z,14.71
2022-11-03T21:18:31.299Z,14.69
2022-11-03T21:20:58.185Z,14.69
2022-11-03T21:23:26.602Z,14.70
2022-11-03T21:25:53.599Z,14.69
2022-11-03T21:28:21.188Z,14.70
2022-11-03T21:30:49.035Z,14.69
2022-11-03T21:33:16.220Z,14.68
2022-11-03T21:35:43.467Z,14.67
2022-11-03T21:38:11.176Z,14.65
2022-11-03T21:40:43.895Z,14.67
2022-11-03T21:43:30.151Z,14.61
2022-11-03T21:46:05.141Z,14.60
2022-11-03T21:48:50.567Z,14.61
2022-11-03T21:51:18.717Z,14.54
2022-11-03T21:53:46.479Z,14.57
2022-11-03T21:56:15.685Z,14.58
2022-11-03T21:58:43.253Z,14.58
2022-11-03T22:01:10.211Z,14.56
2022-11-03T22:03:38.879Z,14.56
2022-11-03T22:06:07.592Z,14.56
2022-11-03T22:08:34.724Z,14.58
2022-11-03T22:11:22.859Z,14.58
2022-11-03T22:13:55.999Z,14.55
2022-11-03T22:16:39.974Z,14.56
2022-11-03T22:19:31.775Z,14.58
2022-11-03T22:22:18.190Z,14.59
2022-11-03T22:25:03.738Z,14.58
2022-11-03T22:27:31.476Z,14.56
2022-11-03T22:30:17.080Z,14.57
2022-11-03T22:32:43.973Z,14.56
2022-11-03T22:35:30.119Z,14.55
2022-11-03T22:38:02.967Z,14.52
2022-11-03T22:40:48.690Z,14.51
2022-11-03T22:43:34.051Z,14.53
2022-11-03T22:46:01.271Z,14.51
2022-11-03T22:48:28.124Z,14.53
2022-11-03T22:50:59.918Z,14.48
2022-11-03T22:53:45.408Z,14.48
2022-11-03T22:56:12.695Z,14.50
2022-11-03T22:58:39.490Z,14.46
2022-11-03T23:01:11.564Z,14.49
2022-11-03T23:03:39.894Z,14.48
2022-11-03T23:06:17.703Z,14.46
2022-11-03T23:08:45.174Z,14.48
2022-11-03T23:11:19.166Z,14.46
2022-11-03T23:13:47.376Z,14.50
2022-11-03T23:16:16.274Z,14.47
2022-11-03T23:19:01.770Z,14.50
2022-11-03T23:21:29.243Z,14.46
2022-11-03T23:24:14.725Z,14.48
2022-11-03T23:26:41.984Z,14.45
2022-11-03T23:29:09.170Z,14.43
2022-11-03T23:31:36.721Z,14.44
2022-11-03T23:34:04.051Z,14.45
2022-11-03T23:36:31.189Z,14.42
2022-11-03T23:38:58.222Z,14.39
2022-11-03T23:41:25.121Z,14.42
2022-11-03T23:43:52.482Z,14.41
2022-11-03T23:46:39.471Z,14.41
2022-11-03T23:49:06.691Z,14.40
2022-11-03T23:51:34.431Z,14.44
2022-11-03T23:54:01.769Z,14.43
2022-11-03T23:56:49.035Z,14.46
2022-11-03T23:59:16.509Z,14.42
